createdAt,value
2022-09-28T00:01:31.783Z,30.44
2022-09-28T00:03:58.278Z,31.08
2022-09-28T00:06:24.649Z,30.67
2022-09-28T00:08:51.048Z,30.50
2022-09-28T00:11:17.455Z,30.41
2022-09-28T00:13:43.825Z,30.36
2022-09-28T00:16:10.249Z,30.32
2022-09-28T00:18:36.651Z,30.33
2022-09-28T00:21:02.986Z,30.34
2022-09-28T00:23:29.349Z,30.32
2022-09-28T00:25:55.708Z,30.33
2022-09-28T00:28:22.060Z,30.34
2022-09-28T00:30:48.419Z,30.35
2022-09-28T00:33:14.767Z,30.56
2022-09-28T00:35:41.132Z,30.95
2022-09-28T00:38:07.485Z,30.55
2022-09-28T00:40:33.901Z,30.48
2022-09-28T00:43:00.265Z,30.44
2022-09-28T00:45:26.675Z,30.39
2022-09-28T00:47:53.109Z,30.39
2022-09-28T00:50:19.451Z,30.39
2022-09-28T00:52:45.803Z,30.38
2022-09-28T00:55:12.171Z,30.42
2022-09-28T00:57:38.500Z,30.42
2022-09-28T01:00:04.825Z,30.43
2022-09-28T01:02:31.342Z,30.37
2022-09-28T01:04:57.737Z,30.84
2022-09-28T01:07:24.100Z,30.82
2022-09-28T01:09:50.459Z,30.61
2022-09-28T01:12:16.800Z,30.55
2022-09-28T01:14:43.134Z,30.42
2022-09-28T01:17:09.503Z,30.42
2022-09-28T01:19:35.881Z,30.35
2022-09-28T01:22:02.262Z,30.38
2022-09-28T01:24:28.611Z,30.40
2022-09-28T01:26:54.973Z,30.40
2022-09-28T01:29:21.322Z,30.40
2022-09-28T01:31:47.734Z,30.42
2022-09-28T01:34:14.127Z,30.40
2022-09-28T01:36:40.455Z,31.08
2022-09-28T01:39:09.235Z,30.74
2022-09-28T01:41:35.560Z,30.53
2022-09-28T01:44:01.937Z,30.52
2022-09-28T01:46:28.320Z,30.46
2022-09-28T01:48:54.671Z,30.35
2022-09-28T01:51:21.042Z,30.40
2022-09-28T01:53:47.435Z,30.45
2022-09-28T01:56:13.788Z,30.45
2022-09-28T01:58:40.128Z,30.39
2022-09-28T02:01:06.647Z,30.39
2022-09-28T02:03:33.060Z,30.37
2022-09-28T02:05:59.410Z,30.60
2022-09-28T02:08:25.885Z,31.04
2022-09-28T02:10:52.281Z,30.67
2022-09-28T02:13:18.636Z,30.57
2022-09-28T02:15:45.000Z,30.53
2022-09-28T02:18:11.330Z,30.46
2022-09-28T02:20:37.687Z,30.44
2022-09-28T02:23:04.156Z,30.42
2022-09-28T02:25:30.505Z,30.43
2022-09-28T02:27:56.856Z,30.43
2022-09-28T02:30:23.329Z,30.40
2022-09-28T02:32:49.703Z,30.44
2022-09-28T02:35:16.036Z,30.45
2022-09-28T02:37:42.421Z,31.07
2022-09-28T02:40:08.756Z,30.78
2022-09-28T02:42:35.106Z,30.62
2022-09-28T02:45:01.571Z,30.57
2022-09-28T02:47:27.922Z,30.53
2022-09-28T02:49:54.267Z,30.49
2022-09-28T02:52:20.749Z,30.53
2022-09-28T02:54:47.202Z,30.51
2022-09-28T02:57:13.571Z,30.53
2022-09-28T02:59:40.025Z,30.50
2022-09-28T03:02:06.497Z,30.48
2022-09-28T03:04:32.883Z,30.49
2022-09-28T03:06:59.284Z,30.55
2022-09-28T03:09:26.111Z,31.24
2022-09-28T03:11:52.467Z,30.69
2022-09-28T03:14:18.955Z,30.61
2022-09-28T03:16:45.349Z,30.55
2022-09-28T03:19:11.706Z,30.52
2022-09-28T03:21:38.080Z,30.48
2022-09-28T03:24:04.464Z,30.48
2022-09-28T03:26:30.805Z,30.49
2022-09-28T03:28:57.299Z,30.47
2022-09-28T03:31:23.703Z,30.46
2022-09-28T03:33:50.101Z,30.45
2022-09-28T03:36:16.488Z,30.46
2022-09-28T03:38:42.814Z,30.81
2022-09-28T03:41:09.157Z,30.90
2022-09-28T03:43:35.534Z,30.65
2022-09-28T03:46:01.990Z,30.58
2022-09-28T03:48:32.082Z,30.52
2022-09-28T03:50:59.222Z,30.56
2022-09-28T03:53:25.579Z,30.56
2022-09-28T03:55:51.938Z,30.54
2022-09-28T03:58:18.425Z,30.51
2022-09-28T04:00:44.808Z,30.48
2022-09-28T04:03:11.170Z,30.43
2022-09-28T04:05:37.653Z,30.38
2022-09-28T04:08:03.988Z,30.50
2022-09-28T04:10:30.342Z,31.02
2022-09-28T04:12:56.763Z,30.53
2022-09-28T04:15:23.124Z,30.41
2022-09-28T04:17:49.483Z,30.36
2022-09-28T04:20:15.845Z,30.29
2022-09-28T04:22:42.191Z,30.27
2022-09-28T04:25:08.557Z,30.23
2022-09-28T04:27:35.035Z,30.22
2022-09-28T04:30:01.324Z,30.20
2022-09-28T04:32:27.677Z,30.20
2022-09-28T04:34:54.147Z,30.19
2022-09-28T04:37:20.509Z,30.46
2022-09-28T04:39:48.524Z,30.61
2022-09-28T04:42:15.151Z,30.33
2022-09-28T04:44:41.532Z,30.25
2022-09-28T04:47:07.886Z,30.24
2022-09-28T04:49:34.847Z,30.21
2022-09-28T04:52:01.204Z,30.20
2022-09-28T04:54:27.556Z,30.16
2022-09-28T04:56:53.967Z,30.13
2022-09-28T04:59:20.308Z,30.11
2022-09-28T05:01:46.647Z,30.12
2022-09-28T05:04:13.035Z,30.12
2022-09-28T05:06:39.385Z,30.59
2022-09-28T05:09:05.739Z,30.41
2022-09-28T05:11:32.131Z,30.22
2022-09-28T05:13:58.513Z,30.17
2022-09-28T05:16:24.898Z,30.12
2022-09-28T05:18:51.307Z,30.11
2022-09-28T05:21:17.679Z,30.07
2022-09-28T05:23:44.010Z,30.07
2022-09-28T05:26:10.473Z,30.06
2022-09-28T05:28:36.821Z,30.05
2022-09-28T05:31:03.165Z,30.07
2022-09-28T05:33:29.642Z,30.21
2022-09-28T05:36:00.805Z,30.59
2022-09-28T05:38:27.621Z,30.22
2022-09-28T05:40:54.143Z,30.18
2022-09-28T05:43:20.521Z,30.13
2022-09-28T05:45:49.347Z,30.13
2022-09-28T05:48:18.199Z,30.08
2022-09-28T05:50:44.553Z,30.07
2022-09-28T05:53:10.888Z,30.05
2022-09-28T05:55:37.402Z,30.05
2022-09-28T05:58:03.770Z,30.01
2022-09-28T06:00:30.121Z,29.96
2022-09-28T06:02:56.479Z,30.43
2022-09-28T06:05:22.829Z,29.97
2022-09-28T06:07:49.189Z,29.84
2022-09-28T06:10:15.581Z,29.76
2022-09-28T06:12:41.927Z,29.68
2022-09-28T06:15:08.289Z,29.62
2022-09-28T06:17:34.768Z,29.58
2022-09-28T06:20:01.127Z,29.53
2022-09-28T06:22:27.486Z,29.46
2022-09-28T06:24:53.877Z,29.42
2022-09-28T06:27:20.284Z,29.40
2022-09-28T06:29:46.648Z,29.87
2022-09-28T06:32:13.003Z,29.63
2022-09-28T06:34:39.329Z,29.46
2022-09-28T06:37:05.688Z,29.40
2022-09-28T06:39:32.057Z,29.36
2022-09-28T06:41:58.432Z,29.38
2022-09-28T06:44:24.824Z,29.33
2022-09-28T06:46:51.198Z,29.28
2022-09-28T06:49:19.584Z,29.25
2022-09-28T06:51:46.098Z,29.25
2022-09-28T06:54:13.628Z,29.36
2022-09-28T06:56:40.052Z,29.86
2022-09-28T06:59:06.436Z,29.41
2022-09-28T07:01:33.032Z,29.32
2022-09-28T07:03:59.477Z,29.28
2022-09-28T07:06:25.913Z,29.28
2022-09-28T07:09:01.621Z,29.26
2022-09-28T07:11:38.650Z,29.24
2022-09-28T07:14:05.045Z,29.22
2022-09-28T07:16:51.693Z,29.20
2022-09-28T07:19:18.222Z,29.29
2022-09-28T07:21:46.955Z,29.82
2022-09-28T07:24:17.228Z,29.38
2022-09-28T07:26:44.006Z,29.26
2022-09-28T07:29:10.319Z,29.22
2022-09-28T07:31:36.638Z,29.19
2022-09-28T07:34:03.046Z,29.19
2022-09-28T07:36:29.541Z,29.23
2022-09-28T07:38:56.040Z,29.22
2022-09-28T07:41:22.467Z,29.19
2022-09-28T07:43:48.884Z,29.23
2022-09-28T07:46:15.271Z,29.70
2022-09-28T07:48:41.666Z,29.35
2022-09-28T07:51:07.997Z,29.21
2022-09-28T07:53:34.344Z,29.16
2022-09-28T07:56:00.811Z,29.10
2022-09-28T07:58:27.167Z,29.14
2022-09-28T08:00:53.536Z,29.15
2022-09-28T08:03:19.965Z,29.13
2022-09-28T08:05:46.321Z,29.12
2022-09-28T08:08:12.711Z,29.13
2022-09-28T08:10:40.753Z,29.48
2022-09-28T08:13:09.177Z,29.39
2022-09-28T08:15:35.566Z,29.18
2022-09-28T08:18:02.925Z,29.17
2022-09-28T08:20:29.516Z,29.13
2022-09-28T08:22:55.848Z,29.13
2022-09-28T08:25:22.276Z,29.09
2022-09-28T08:27:48.617Z,29.08
2022-09-28T08:30:14.938Z,29.13
2022-09-28T08:32:41.311Z,29.17
2022-09-28T08:35:07.657Z,29.43
2022-09-28T08:37:34.024Z,29.43
2022-09-28T08:40:00.491Z,29.22
2022-09-28T08:42:26.852Z,29.18
2022-09-28T08:44:53.204Z,29.14
2022-09-28T08:47:19.660Z,29.10
2022-09-28T08:49:46.168Z,29.10
2022-09-28T08:52:12.551Z,29.10
2022-09-28T08:54:38.901Z,29.09
2022-09-28T08:57:05.232Z,29.09
2022-09-28T08:59:31.615Z,29.27
2022-09-28T09:01:58.124Z,29.50
2022-09-28T09:04:24.496Z,29.23
2022-09-28T09:06:50.828Z,29.14
2022-09-28T09:09:17.208Z,29.13
2022-09-28T09:11:43.554Z,29.09
2022-09-28T09:14:09.908Z,29.10
2022-09-28T09:16:36.447Z,29.10
2022-09-28T09:19:02.857Z,29.10
2022-09-28T09:21:29.231Z,29.09
2022-09-28T09:23:55.672Z,29.17
2022-09-28T09:26:25.525Z,29.70
2022-09-28T09:28:52.466Z,29.32
2022-09-28T09:31:22.548Z,29.19
2022-09-28T09:33:49.262Z,29.12
2022-09-28T09:36:15.604Z,29.12
2022-09-28T09:38:42.016Z,29.10
2022-09-28T09:41:08.462Z,29.10
2022-09-28T09:43:34.931Z,29.10
2022-09-28T09:46:01.510Z,29.08
2022-09-28T09:48:27.921Z,29.12
2022-09-28T09:50:54.296Z,29.60
2022-09-28T09:53:20.679Z,29.27
2022-09-28T09:55:47.019Z,29.13
2022-09-28T09:58:13.350Z,29.13
2022-09-28T10:00:39.741Z,29.09
2022-09-28T10:03:06.134Z,29.07
2022-09-28T10:05:32.491Z,29.08
2022-09-28T10:07:58.855Z,29.07
2022-09-28T10:10:25.223Z,29.05
2022-09-28T10:12:51.553Z,29.08
2022-09-28T10:15:18.006Z,29.52
2022-09-28T10:17:44.342Z,29.30
2022-09-28T10:20:10.708Z,29.14
2022-09-28T10:22:37.194Z,29.15
2022-09-28T10:25:03.524Z,29.14
2022-09-28T10:27:29.879Z,29.10
2022-09-28T10:29:56.398Z,29.08
2022-09-28T10:32:22.733Z,29.08
2022-09-28T10:34:50.972Z,29.08
2022-09-28T10:37:17.688Z,29.09
2022-09-28T10:39:44.030Z,29.52
2022-09-28T10:42:10.408Z,29.33
2022-09-28T10:44:36.810Z,29.17
2022-09-28T10:47:03.176Z,29.13
2022-09-28T10:49:29.521Z,29.08
2022-09-28T10:51:56.013Z,29.07
2022-09-28T10:54:22.451Z,29.06
2022-09-28T10:56:48.797Z,29.08
2022-09-28T10:59:15.297Z,29.06
2022-09-28T11:01:41.692Z,29.11
2022-09-28T11:04:08.103Z,29.63
2022-09-28T11:06:34.520Z,29.20
2022-09-28T11:09:00.850Z,29.15
2022-09-28T11:11:27.219Z,29.08
2022-09-28T11:13:53.724Z,29.06
2022-09-28T11:16:20.150Z,29.10
2022-09-28T11:18:46.569Z,29.11
2022-09-28T11:21:13.324Z,29.07
2022-09-28T11:23:39.677Z,29.08
2022-09-28T11:26:06.060Z,29.10
2022-09-28T11:28:32.425Z,29.59
2022-09-28T11:30:58.825Z,29.23
2022-09-28T11:33:25.199Z,29.11
2022-09-28T11:35:51.557Z,29.07
2022-09-28T11:38:17.894Z,29.05
2022-09-28T11:40:44.316Z,29.06
2022-09-28T11:43:12.295Z,29.04
2022-09-28T11:45:40.915Z,29.02
2022-09-28T11:48:07.251Z,29.04
2022-09-28T11:50:33.655Z,29.03
2022-09-28T11:53:00.027Z,29.49
2022-09-28T11:55:26.448Z,29.21
2022-09-28T11:57:52.865Z,29.11
2022-09-28T12:00:19.243Z,29.07
2022-09-28T12:02:45.749Z,29.05
2022-09-28T12:05:14.831Z,29.03
2022-09-28T12:07:43.509Z,29.02
2022-09-28T12:10:09.859Z,29.02
2022-09-28T12:12:36.235Z,29.08
2022-09-28T12:15:02.564Z,29.09
2022-09-28T12:17:28.954Z,29.46
2022-09-28T12:19:55.469Z,29.25
2022-09-28T12:22:21.804Z,29.12
2022-09-28T12:24:48.220Z,29.09
2022-09-28T12:27:14.771Z,29.08
2022-09-28T12:29:41.161Z,29.05
2022-09-28T12:32:07.534Z,29.04
2022-09-28T12:34:33.897Z,29.01
2022-09-28T12:37:00.228Z,29.03
2022-09-28T12:39:46.739Z,29.06
2022-09-28T12:42:14.482Z,29.43
2022-09-28T12:44:40.848Z,29.28
2022-09-28T12:47:07.270Z,29.12
2022-09-28T12:52:20.030Z,29.07
2022-09-28T12:54:46.522Z,29.07
2022-09-28T12:57:12.868Z,29.04
2022-09-28T12:59:39.221Z,29.07
2022-09-28T13:02:05.751Z,29.07
2022-09-28T13:04:32.217Z,29.10
2022-09-28T13:06:58.581Z,29.53
2022-09-28T13:09:24.954Z,29.32
2022-09-28T13:11:51.302Z,29.17
2022-09-28T13:14:17.638Z,29.14
2022-09-28T13:16:44.123Z,29.11
2022-09-28T13:19:10.492Z,29.06
2022-09-28T13:21:36.826Z,29.07
2022-09-28T13:24:20.639Z,29.04
2022-09-28T13:26:49.497Z,29.06
2022-09-28T13:29:15.942Z,29.07
2022-09-28T13:31:42.681Z,29.52
2022-09-28T13:34:09.041Z,29.27
2022-09-28T13:36:35.407Z,29.14
2022-09-28T13:39:01.728Z,29.10
2022-09-28T13:41:28.082Z,29.09
2022-09-28T13:43:54.516Z,29.08
2022-09-28T13:46:20.905Z,29.05
2022-09-28T13:48:47.297Z,29.06
2022-09-28T13:51:13.701Z,29.05
2022-09-28T13:53:40.098Z,29.06
2022-09-28T13:56:06.458Z,29.49
2022-09-28T13:58:32.890Z,29.28
2022-09-28T14:00:59.397Z,29.17
2022-09-28T14:03:25.805Z,29.17
2022-09-28T14:05:52.212Z,29.13
2022-09-28T14:08:18.534Z,29.13
2022-09-28T14:10:44.905Z,29.11
2022-09-28T14:13:11.800Z,29.06
2022-09-28T14:15:38.166Z,29.07
2022-09-28T14:18:04.520Z,29.08
2022-09-28T14:20:30.918Z,29.51
2022-09-28T14:22:57.264Z,29.30
2022-09-28T14:25:23.611Z,29.19
2022-09-28T14:27:49.993Z,29.12
2022-09-28T14:30:16.376Z,29.09
2022-09-28T14:32:42.771Z,29.11
2022-09-28T14:35:09.165Z,29.08
2022-09-28T14:37:35.541Z,29.09
2022-09-28T14:40:01.914Z,29.07
2022-09-28T14:42:28.331Z,29.10
2022-09-28T14:44:54.680Z,29.59
2022-09-28T14:47:21.009Z,29.27
2022-09-28T14:49:47.363Z,29.13
2022-09-28T14:52:13.719Z,29.08
2022-09-28T14:54:40.064Z,29.10
2022-09-28T14:57:06.451Z,29.09
2022-09-28T14:59:32.786Z,29.06
2022-09-28T15:01:59.140Z,29.06
2022-09-28T15:04:25.650Z,29.04
2022-09-28T15:06:52.071Z,29.17
2022-09-28T15:09:19.529Z,29.45
2022-09-28T15:11:45.942Z,29.18
2022-09-28T15:14:12.284Z,29.09
2022-09-28T15:16:38.619Z,29.06
2022-09-28T15:19:04.988Z,29.03
2022-09-28T15:21:31.329Z,29.02
2022-09-28T15:23:57.726Z,29.01
2022-09-28T15:26:24.084Z,29.06
2022-09-28T15:28:50.430Z,29.07
2022-09-28T15:31:16.848Z,29.17
2022-09-28T15:33:43.403Z,29.50
2022-09-28T15:36:09.731Z,29.15
2022-09-28T15:38:36.080Z,29.10
2022-09-28T15:41:02.500Z,29.04
2022-09-28T15:43:28.894Z,29.05
2022-09-28T15:45:55.288Z,29.01
2022-09-28T15:48:21.789Z,29.00
2022-09-28T15:50:48.133Z,28.99
2022-09-28T15:53:14.492Z,29.00
2022-09-28T15:55:40.851Z,29.18
2022-09-28T15:58:07.194Z,29.33
2022-09-28T16:00:33.568Z,29.09
2022-09-28T16:03:00.071Z,29.05
2022-09-28T16:05:26.534Z,29.01
2022-09-28T16:07:56.136Z,28.98
2022-09-28T16:10:22.830Z,28.97
2022-09-28T16:12:49.181Z,28.96
2022-09-28T16:15:15.526Z,28.97
2022-09-28T16:17:41.905Z,28.97
2022-09-28T16:20:08.257Z,29.27
2022-09-28T16:22:34.593Z,29.30
2022-09-28T16:25:00.957Z,29.08
2022-09-28T16:27:27.341Z,29.05
2022-09-28T16:29:53.692Z,29.11
2022-09-28T16:32:20.174Z,29.13
2022-09-28T16:34:46.529Z,29.18
2022-09-28T16:37:12.855Z,29.21
2022-09-28T16:39:39.349Z,29.23
2022-09-28T16:42:05.738Z,29.26
2022-09-28T16:44:32.117Z,29.54
2022-09-28T16:46:58.490Z,29.67
2022-09-28T16:49:24.881Z,29.45
2022-09-28T16:51:51.237Z,29.41
2022-09-28T16:54:17.683Z,29.39
2022-09-28T16:56:44.026Z,29.37
2022-09-28T16:59:13.614Z,29.38
2022-09-28T17:01:40.422Z,29.39
2022-09-28T17:04:06.846Z,29.40
2022-09-28T17:06:33.368Z,29.43
2022-09-28T17:08:59.772Z,29.54
2022-09-28T17:11:26.110Z,30.06
2022-09-28T17:13:52.461Z,29.67
2022-09-28T17:16:18.902Z,29.63
2022-09-28T17:18:45.282Z,29.60
2022-09-28T17:21:11.664Z,29.55
2022-09-28T17:23:38.147Z,29.52
2022-09-28T17:26:04.488Z,29.55
2022-09-28T17:28:30.818Z,29.53
2022-09-28T17:30:57.340Z,29.55
2022-09-28T17:33:23.738Z,29.57
2022-09-28T17:35:50.135Z,29.99
2022-09-28T17:38:16.623Z,29.86
2022-09-28T17:40:43.090Z,29.69
2022-09-28T17:43:09.480Z,29.66
2022-09-28T17:45:35.951Z,29.62
2022-09-28T17:48:02.279Z,29.62
2022-09-28T17:50:28.616Z,29.61
2022-09-28T17:52:55.074Z,29.61
2022-09-28T17:55:21.438Z,29.62
2022-09-28T17:57:47.784Z,29.60
2022-09-28T18:00:14.153Z,29.66
2022-09-28T18:02:40.555Z,30.25
2022-09-28T18:05:06.932Z,29.89
2022-09-28T18:07:33.332Z,29.88
2022-09-28T18:09:59.716Z,29.87
2022-09-28T18:12:26.065Z,29.89
2022-09-28T18:14:52.585Z,29.97
2022-09-28T18:17:18.953Z,29.94
2022-09-28T18:19:45.295Z,29.91
2022-09-28T18:22:11.661Z,29.95
2022-09-28T18:24:37.993Z,29.96
2022-09-28T18:27:04.351Z,29.98
2022-09-28T18:29:33.343Z,30.46
2022-09-28T18:32:00.042Z,30.27
2022-09-28T18:34:26.385Z,30.13
2022-09-28T18:36:52.856Z,30.10
2022-09-28T18:39:19.265Z,30.06
2022-09-28T18:41:45.666Z,30.09
2022-09-28T18:44:12.126Z,30.07
2022-09-28T18:46:38.553Z,30.11
2022-09-28T18:49:07.346Z,30.05
2022-09-28T18:51:33.769Z,30.08
2022-09-28T18:54:00.128Z,30.11
2022-09-28T18:56:26.462Z,30.33
2022-09-28T18:58:52.822Z,30.59
2022-09-28T19:01:29.921Z,30.31
2022-09-28T19:03:56.693Z,30.30
2022-09-28T19:06:23.048Z,30.26
2022-09-28T19:08:49.457Z,30.24
2022-09-28T19:11:15.825Z,30.27
2022-09-28T19:13:42.172Z,30.29
2022-09-28T19:16:08.552Z,30.29
2022-09-28T19:18:34.983Z,30.28
2022-09-28T19:21:01.335Z,30.29
2022-09-28T19:23:27.697Z,30.29
2022-09-28T19:25:54.080Z,30.83
2022-09-28T19:28:20.431Z,30.53
2022-09-28T19:30:46.858Z,30.42
2022-09-28T19:33:13.384Z,30.39
2022-09-28T19:35:39.742Z,30.36
2022-09-28T19:38:06.087Z,30.37
2022-09-28T19:40:32.481Z,30.38
2022-09-28T19:42:58.817Z,30.37
2022-09-28T19:45:25.184Z,30.35
2022-09-28T19:47:52.242Z,30.37
2022-09-28T19:50:20.535Z,30.37
2022-09-28T19:52:46.881Z,30.48
2022-09-28T19:55:13.384Z,31.06
2022-09-28T19:57:39.750Z,30.59
2022-09-28T20:00:06.202Z,30.50
2022-09-28T20:02:32.721Z,30.47
2022-09-28T20:04:59.191Z,30.42
2022-09-28T20:07:25.528Z,30.44
2022-09-28T20:09:51.995Z,30.46
2022-09-28T20:12:18.318Z,30.44
2022-09-28T20:14:44.666Z,30.46
2022-09-28T20:17:11.033Z,30.49
2022-09-28T20:19:37.357Z,30.50
2022-09-28T20:22:03.713Z,30.69
2022-09-28T20:24:30.093Z,31.01
2022-09-28T20:26:56.445Z,30.67
2022-09-28T20:29:28.238Z,30.57
2022-09-28T20:31:54.594Z,30.55
2022-09-28T20:34:20.942Z,30.50
2022-09-28T20:36:47.279Z,30.51
2022-09-28T20:39:13.756Z,30.48
2022-09-28T20:41:40.126Z,30.48
2022-09-28T20:44:06.816Z,30.46
2022-09-28T20:46:34.402Z,30.48
2022-09-28T20:49:00.819Z,30.48
2022-09-28T20:51:27.179Z,30.63
2022-09-28T20:53:53.632Z,31.03
2022-09-28T20:56:19.983Z,30.67
2022-09-28T20:58:46.333Z,30.59
2022-09-28T21:01:12.725Z,30.57
2022-09-28T21:03:39.063Z,30.56
2022-09-28T21:06:10.054Z,30.53
2022-09-28T21:08:38.447Z,30.51
2022-09-28T21:11:04.785Z,30.54
2022-09-28T21:13:31.118Z,30.54
2022-09-28T21:15:57.768Z,30.56
2022-09-28T21:18:24.231Z,30.53
2022-09-28T21:20:50.610Z,30.74
2022-09-28T21:23:18.253Z,31.01
2022-09-28T21:25:45.994Z,30.68
2022-09-28T21:28:12.337Z,30.63
2022-09-28T21:30:38.720Z,30.56
2022-09-28T21:33:05.080Z,30.59
2022-09-28T21:35:31.412Z,30.53
2022-09-28T21:37:57.781Z,30.59
2022-09-28T21:40:24.157Z,30.53
2022-09-28T21:42:50.577Z,30.55
2022-09-28T21:45:16.941Z,30.54
2022-09-28T21:47:43.293Z,30.52
2022-09-28T21:50:09.625Z,30.78
2022-09-28T21:52:36.025Z,30.98
2022-09-28T21:55:02.374Z,30.71
2022-09-28T21:57:28.712Z,30.65
2022-09-28T21:59:55.197Z,30.61
2022-09-28T22:02:21.609Z,30.60
2022-09-28T22:04:47.974Z,30.59
2022-09-28T22:07:14.417Z,30.59
2022-09-28T22:09:40.751Z,30.63
2022-09-28T22:12:07.086Z,30.63
2022-09-28T22:14:33.477Z,30.58
2022-09-28T22:16:59.817Z,30.59
2022-09-28T22:19:31.606Z,30.79
2022-09-28T22:21:57.977Z,31.06
2022-09-28T22:24:24.301Z,30.78
2022-09-28T22:26:50.648Z,30.69
2022-09-28T22:29:17.136Z,30.65
2022-09-28T22:31:43.499Z,30.64
2022-09-28T22:34:09.901Z,30.62
2022-09-28T22:36:36.273Z,30.63
2022-09-28T22:39:02.646Z,30.61
2022-09-28T22:41:29.003Z,30.59
2022-09-28T22:43:55.450Z,30.60
2022-09-28T22:46:21.815Z,30.63
2022-09-28T22:48:48.410Z,30.96
2022-09-28T22:51:14.770Z,30.98
2022-09-28T22:53:41.109Z,30.74
2022-09-28T22:56:07.459Z,30.72
2022-09-28T22:58:33.823Z,30.66
2022-09-28T23:01:00.200Z,30.63
2022-09-28T23:03:26.551Z,30.66
2022-09-28T23:05:53.061Z,30.70
2022-09-28T23:08:19.446Z,30.67
2022-09-28T23:10:45.774Z,30.66
2022-09-28T23:13:12.213Z,30.66
2022-09-28T23:15:38.599Z,30.62
2022-09-28T23:18:04.956Z,30.96
2022-09-28T23:20:31.377Z,30.99
2022-09-28T23:22:57.729Z,30.74
2022-09-28T23:25:24.084Z,30.73
2022-09-28T23:27:50.457Z,30.70
2022-09-28T23:30:16.839Z,30.64
2022-09-28T23:32:43.199Z,30.68
2022-09-28T23:35:09.567Z,30.67
2022-09-28T23:37:36.079Z,30.63
2022-09-28T23:40:02.428Z,30.64
2022-09-28T23:42:28.885Z,30.63
2022-09-28T23:44:55.243Z,30.60
2022-09-28T23:47:21.587Z,30.90
2022-09-28T23:49:48.097Z,31.06
2022-09-28T23:52:14.459Z,30.80
2022-09-28T23:54:40.800Z,30.71
2022-09-28T23:57:07.242Z,30.68
2022-09-28T23:59:33.572Z,30.68
